sensor_id;sensor_type;location;lat;lon;timestamp;P1;durP1;ratioP1;P2;durP2;ratioP2
69034;SDS011;56091;55.756;37.412;2022-09-13T00:02:49;12.02;;;5.82;;
69034;SDS011;56091;55.756;37.412;2022-09-13T00:07:53;11.77;;;5.93;;
69034;SDS011;56091;55.756;37.412;2022-09-13T00:12:55;13.77;;;6.10;;
69034;SDS011;56091;55.756;37.412;2022-09-13T00:17:56;11.03;;;5.77;;
69034;SDS011;56091;55.756;37.412;2022-09-13T00:22:56;11.67;;;5.60;;
69034;SDS011;56091;55.756;37.412;2022-09-13T00:27:57;13.90;;;6.25;;
69034;SDS011;56091;55.756;37.412;2022-09-13T00:33:07;13.63;;;6.03;;
69034;SDS011;56091;55.756;37.412;2022-09-13T00:38:08;11.43;;;5.95;;
69034;SDS011;56091;55.756;37.412;2022-09-13T00:43:15;10.87;;;5.20;;
69034;SDS011;56091;55.756;37.412;2022-09-13T00:48:21;13.75;;;5.80;;
69034;SDS011;56091;55.756;37.412;2022-09-13T00:53:25;11.43;;;6.10;;
69034;SDS011;56091;55.756;37.412;2022-09-13T00:58:36;11.82;;;5.50;;
69034;SDS011;56091;55.756;37.412;2022-09-13T01:03:41;11.70;;;6.33;;
69034;SDS011;56091;55.756;37.412;2022-09-13T01:08:44;12.77;;;5.93;;
69034;SDS011;56091;55.756;37.412;2022-09-13T01:13:51;11.03;;;5.77;;
69034;SDS011;56091;55.756;37.412;2022-09-13T01:18:55;13.13;;;6.32;;
69034;SDS011;56091;55.756;37.412;2022-09-13T01:24:19;10.77;;;5.77;;
69034;SDS011;56091;55.756;37.412;2022-09-13T01:30:03;14.65;;;5.80;;
69034;SDS011;56091;55.756;37.412;2022-09-13T01:35:21;12.37;;;6.17;;
69034;SDS011;56091;55.756;37.412;2022-09-13T01:45:55;13.57;;;6.03;;
69034;SDS011;56091;55.756;37.412;2022-09-13T01:51:01;12.40;;;6.40;;
69034;SDS011;56091;55.756;37.412;2022-09-13T02:01:58;14.32;;;6.57;;
69034;SDS011;56091;55.756;37.412;2022-09-13T02:07:07;12.83;;;5.93;;
69034;SDS011;56091;55.756;37.412;2022-09-13T02:12:23;15.52;;;6.80;;
69034;SDS011;56091;55.756;37.412;2022-09-13T02:17:29;18.70;;;6.83;;
69034;SDS011;56091;55.756;37.412;2022-09-13T02:22:38;13.63;;;6.32;;
69034;SDS011;56091;55.756;37.412;2022-09-13T02:27:46;14.00;;;6.40;;
69034;SDS011;56091;55.756;37.412;2022-09-13T02:32:53;18.60;;;6.28;;
69034;SDS011;56091;55.756;37.412;2022-09-13T02:38:17;15.77;;;6.90;;
69034;SDS011;56091;55.756;37.412;2022-09-13T02:54:45;12.95;;;6.95;;
69034;SDS011;56091;55.756;37.412;2022-09-13T02:59:51;13.53;;;6.60;;
69034;SDS011;56091;55.756;37.412;2022-09-13T03:04:53;16.05;;;6.43;;
69034;SDS011;56091;55.756;37.412;2022-09-13T03:09:54;14.13;;;6.40;;
69034;SDS011;56091;55.756;37.412;2022-09-13T03:20:11;14.60;;;6.70;;
69034;SDS011;56091;55.756;37.412;2022-09-13T03:30:40;13.63;;;7.27;;
69034;SDS011;56091;55.756;37.412;2022-09-13T03:41:46;14.40;;;6.80;;
69034;SDS011;56091;55.756;37.412;2022-09-13T03:46:53;13.07;;;6.57;;
69034;SDS011;56091;55.756;37.412;2022-09-13T03:51:57;13.53;;;6.70;;
69034;SDS011;56091;55.756;37.412;2022-09-13T03:57:12;14.50;;;6.97;;
69034;SDS011;56091;55.756;37.412;2022-09-13T04:02:14;12.50;;;6.83;;
69034;SDS011;56091;55.756;37.412;2022-09-13T04:07:16;14.13;;;7.30;;
69034;SDS011;56091;55.756;37.412;2022-09-13T04:12:21;18.97;;;7.10;;
69034;SDS011;56091;55.756;37.412;2022-09-13T04:17:22;14.57;;;7.25;;
69034;SDS011;56091;55.756;37.412;2022-09-13T04:22:23;18.13;;;7.07;;
69034;SDS011;56091;55.756;37.412;2022-09-13T04:27:24;18.67;;;7.32;;
69034;SDS011;56091;55.756;37.412;2022-09-13T04:32:25;11.87;;;7.07;;
69034;SDS011;56091;55.756;37.412;2022-09-13T04:37:25;16.85;;;7.88;;
69034;SDS011;56091;55.756;37.412;2022-09-13T04:42:26;12.27;;;7.50;;
69034;SDS011;56091;55.756;37.412;2022-09-13T04:47:27;17.70;;;7.73;;
69034;SDS011;56091;55.756;37.412;2022-09-13T04:52:28;18.42;;;7.32;;
69034;SDS011;56091;55.756;37.412;2022-09-13T04:57:28;16.13;;;8.30;;
69034;SDS011;56091;55.756;37.412;2022-09-13T05:02:29;17.20;;;7.75;;
69034;SDS011;56091;55.756;37.412;2022-09-13T05:07:30;18.37;;;8.17;;
69034;SDS011;56091;55.756;37.412;2022-09-13T05:12:31;17.13;;;7.83;;
69034;SDS011;56091;55.756;37.412;2022-09-13T05:17:32;18.95;;;7.72;;
69034;SDS011;56091;55.756;37.412;2022-09-13T05:22:35;17.57;;;8.27;;
69034;SDS011;56091;55.756;37.412;2022-09-13T05:27:36;19.13;;;8.25;;
69034;SDS011;56091;55.756;37.412;2022-09-13T05:32:37;16.57;;;8.10;;
69034;SDS011;56091;55.756;37.412;2022-09-13T05:37:38;19.88;;;8.85;;
69034;SDS011;56091;55.756;37.412;2022-09-13T05:42:39;20.07;;;8.60;;
69034;SDS011;56091;55.756;37.412;2022-09-13T05:47:39;16.67;;;8.57;;
69034;SDS011;56091;55.756;37.412;2022-09-13T05:52:40;19.13;;;8.50;;
69034;SDS011;56091;55.756;37.412;2022-09-13T05:57:41;20.73;;;8.80;;
69034;SDS011;56091;55.756;37.412;2022-09-13T06:02:42;19.85;;;8.32;;
69034;SDS011;56091;55.756;37.412;2022-09-13T06:07:43;17.50;;;8.53;;
69034;SDS011;56091;55.756;37.412;2022-09-13T06:12:44;20.67;;;8.45;;
69034;SDS011;56091;55.756;37.412;2022-09-13T06:17:44;20.67;;;8.60;;
69034;SDS011;56091;55.756;37.412;2022-09-13T06:22:48;20.92;;;8.60;;
69034;SDS011;56091;55.756;37.412;2022-09-13T06:27:49;15.87;;;8.27;;
69034;SDS011;56091;55.756;37.412;2022-09-13T06:32:50;19.45;;;8.90;;
69034;SDS011;56091;55.756;37.412;2022-09-13T06:37:54;18.83;;;8.53;;
69034;SDS011;56091;55.756;37.412;2022-09-13T06:42:56;20.00;;;8.75;;
69034;SDS011;56091;55.756;37.412;2022-09-13T06:47:57;16.73;;;8.17;;
69034;SDS011;56091;55.756;37.412;2022-09-13T06:52:58;16.17;;;8.27;;
69034;SDS011;56091;55.756;37.412;2022-09-13T06:57:59;18.03;;;8.57;;
69034;SDS011;56091;55.756;37.412;2022-09-13T07:02:59;16.27;;;7.93;;
69034;SDS011;56091;55.756;37.412;2022-09-13T07:08:03;21.33;;;8.10;;
69034;SDS011;56091;55.756;37.412;2022-09-13T07:13:04;17.42;;;7.80;;
69034;SDS011;56091;55.756;37.412;2022-09-13T07:18:06;23.70;;;8.00;;
69034;SDS011;56091;55.756;37.412;2022-09-13T07:23:07;14.32;;;7.20;;
69034;SDS011;56091;55.756;37.412;2022-09-13T07:28:08;15.53;;;7.83;;
69034;SDS011;56091;55.756;37.412;2022-09-13T07:33:11;19.25;;;7.38;;
69034;SDS011;56091;55.756;37.412;2022-09-13T07:38:12;21.00;;;6.97;;
69034;SDS011;56091;55.756;37.412;2022-09-13T07:43:13;18.47;;;7.40;;
69034;SDS011;56091;55.756;37.412;2022-09-13T07:48:13;15.15;;;7.57;;
69034;SDS011;56091;55.756;37.412;2022-09-13T07:53:14;15.77;;;7.67;;
69034;SDS011;56091;55.756;37.412;2022-09-13T07:58:15;14.40;;;6.38;;
69034;SDS011;56091;55.756;37.412;2022-09-13T08:03:16;12.53;;;6.17;;
69034;SDS011;56091;55.756;37.412;2022-09-13T08:08:18;15.38;;;6.40;;
69034;SDS011;56091;55.756;37.412;2022-09-13T08:13:22;12.17;;;6.73;;
69034;SDS011;56091;55.756;37.412;2022-09-13T08:18:23;14.38;;;6.30;;
69034;SDS011;56091;55.756;37.412;2022-09-13T08:23:24;13.17;;;6.27;;
69034;SDS011;56091;55.756;37.412;2022-09-13T08:28:27;14.47;;;5.83;;
69034;SDS011;56091;55.756;37.412;2022-09-13T08:33:28;13.20;;;5.70;;
69034;SDS011;56091;55.756;37.412;2022-09-13T08:38:30;15.80;;;4.83;;
69034;SDS011;56091;55.756;37.412;2022-09-13T08:48:42;16.07;;;5.43;;
69034;SDS011;56091;55.756;37.412;2022-09-13T08:53:49;11.40;;;4.68;;
69034;SDS011;56091;55.756;37.412;2022-09-13T09:09:07;11.83;;;4.50;;
69034;SDS011;56091;55.756;37.412;2022-09-13T09:14:26;14.68;;;4.00;;
69034;SDS011;56091;55.756;37.412;2022-09-13T09:19:39;8.23;;;4.17;;
69034;SDS011;56091;55.756;37.412;2022-09-13T09:24:45;13.60;;;4.10;;
69034;SDS011;56091;55.756;37.412;2022-09-13T09:29:52;8.07;;;4.03;;
69034;SDS011;56091;55.756;37.412;2022-09-13T09:35:22;10.95;;;4.20;;
69034;SDS011;56091;55.756;37.412;2022-09-13T09:40:37;7.43;;;3.20;;
69034;SDS011;56091;55.756;37.412;2022-09-13T09:45:38;11.35;;;3.92;;
69034;SDS011;56091;55.756;37.412;2022-09-13T09:50:44;11.33;;;3.30;;
69034;SDS011;56091;55.756;37.412;2022-09-13T10:01:25;8.77;;;3.30;;
69034;SDS011;56091;55.756;37.412;2022-09-13T10:06:31;9.77;;;3.33;;
69034;SDS011;56091;55.756;37.412;2022-09-13T10:16:45;8.85;;;3.08;;
69034;SDS011;56091;55.756;37.412;2022-09-13T10:21:58;8.10;;;2.80;;
69034;SDS011;56091;55.756;37.412;2022-09-13T10:26:59;10.35;;;3.40;;
69034;SDS011;56091;55.756;37.412;2022-09-13T10:32:06;11.80;;;3.40;;
69034;SDS011;56091;55.756;37.412;2022-09-13T10:42:21;8.80;;;2.40;;
69034;SDS011;56091;55.756;37.412;2022-09-13T10:52:48;10.87;;;2.30;;
69034;SDS011;56091;55.756;37.412;2022-09-13T11:03:11;9.83;;;2.13;;
69034;SDS011;56091;55.756;37.412;2022-09-13T11:14:27;6.30;;;2.40;;
69034;SDS011;56091;55.756;37.412;2022-09-13T11:30:20;9.65;;;2.65;;
69034;SDS011;56091;55.756;37.412;2022-09-13T11:40:33;10.05;;;2.50;;
69034;SDS011;56091;55.756;37.412;2022-09-13T11:56:41;5.47;;;2.40;;
69034;SDS011;56091;55.756;37.412;2022-09-13T12:01:48;7.55;;;2.33;;
69034;SDS011;56091;55.756;37.412;2022-09-13T12:06:57;12.40;;;3.00;;
69034;SDS011;56091;55.756;37.412;2022-09-13T12:12:11;9.32;;;2.80;;
69034;SDS011;56091;55.756;37.412;2022-09-13T12:17:24;6.90;;;2.60;;
69034;SDS011;56091;55.756;37.412;2022-09-13T12:22:31;9.50;;;2.58;;
69034;SDS011;56091;55.756;37.412;2022-09-13T12:27:40;9.23;;;2.40;;
69034;SDS011;56091;55.756;37.412;2022-09-13T12:32:49;8.68;;;2.30;;
69034;SDS011;56091;55.756;37.412;2022-09-13T12:48:40;11.40;;;2.73;;
69034;SDS011;56091;55.756;37.412;2022-09-13T12:54:01;8.27;;;2.60;;
69034;SDS011;56091;55.756;37.412;2022-09-13T13:04:35;6.22;;;2.22;;
69034;SDS011;56091;55.756;37.412;2022-09-13T13:14:46;5.85;;;2.30;;
69034;SDS011;56091;55.756;37.412;2022-09-13T13:19:47;11.47;;;2.60;;
69034;SDS011;56091;55.756;37.412;2022-09-13T13:24:48;8.98;;;2.47;;
69034;SDS011;56091;55.756;37.412;2022-09-13T13:30:32;8.50;;;2.40;;
69034;SDS011;56091;55.756;37.412;2022-09-13T13:35:31;7.35;;;2.30;;
69034;SDS011;56091;55.756;37.412;2022-09-13T13:40:31;7.47;;;2.20;;
69034;SDS011;56091;55.756;37.412;2022-09-13T13:45:42;9.82;;;2.42;;
69034;SDS011;56091;55.756;37.412;2022-09-13T14:02:00;18.00;;;2.70;;
69034;SDS011;56091;55.756;37.412;2022-09-13T14:07:03;10.68;;;2.60;;
69034;SDS011;56091;55.756;37.412;2022-09-13T14:12:19;7.03;;;2.70;;
69034;SDS011;56091;55.756;37.412;2022-09-13T14:17:48;7.63;;;2.95;;
69034;SDS011;56091;55.756;37.412;2022-09-13T14:22:50;20.80;;;3.27;;
69034;SDS011;56091;55.756;37.412;2022-09-13T14:27:52;8.70;;;2.50;;
69034;SDS011;56091;55.756;37.412;2022-09-13T14:32:58;10.17;;;2.77;;
69034;SDS011;56091;55.756;37.412;2022-09-13T14:43:35;8.20;;;2.70;;
69034;SDS011;56091;55.756;37.412;2022-09-13T14:48:39;7.30;;;2.80;;
69034;SDS011;56091;55.756;37.412;2022-09-13T14:53:48;11.23;;;2.60;;
69034;SDS011;56091;55.756;37.412;2022-09-13T14:58:56;13.77;;;2.80;;
69034;SDS011;56091;55.756;37.412;2022-09-13T15:04:00;8.43;;;2.70;;
69034;SDS011;56091;55.756;37.412;2022-09-13T15:19:30;10.52;;;3.88;;
69034;SDS011;56091;55.756;37.412;2022-09-13T15:24:42;9.03;;;3.00;;
69034;SDS011;56091;55.756;37.412;2022-09-13T15:29:52;6.30;;;2.75;;
69034;SDS011;56091;55.756;37.412;2022-09-13T15:40:41;7.07;;;3.25;;
69034;SDS011;56091;55.756;37.412;2022-09-13T15:45:43;8.87;;;2.90;;
69034;SDS011;56091;55.756;37.412;2022-09-13T15:50:44;6.35;;;2.90;;
69034;SDS011;56091;55.756;37.412;2022-09-13T15:56:13;7.80;;;2.70;;
69034;SDS011;56091;55.756;37.412;2022-09-13T16:01:17;7.88;;;2.65;;
69034;SDS011;56091;55.756;37.412;2022-09-13T16:06:18;7.57;;;2.90;;
69034;SDS011;56091;55.756;37.412;2022-09-13T16:11:18;8.77;;;2.77;;
69034;SDS011;56091;55.756;37.412;2022-09-13T16:16:19;7.93;;;3.30;;
69034;SDS011;56091;55.756;37.412;2022-09-13T16:21:20;13.23;;;3.27;;
69034;SDS011;56091;55.756;37.412;2022-09-13T16:26:21;9.15;;;3.30;;
69034;SDS011;56091;55.756;37.412;2022-09-13T16:31:22;9.60;;;3.07;;
69034;SDS011;56091;55.756;37.412;2022-09-13T16:36:22;10.23;;;2.90;;
69034;SDS011;56091;55.756;37.412;2022-09-13T16:41:23;6.70;;;3.20;;
69034;SDS011;56091;55.756;37.412;2022-09-13T16:46:24;8.15;;;3.42;;
69034;SDS011;56091;55.756;37.412;2022-09-13T16:51:26;11.20;;;3.60;;
69034;SDS011;56091;55.756;37.412;2022-09-13T16:56:27;9.65;;;3.60;;
69034;SDS011;56091;55.756;37.412;2022-09-13T17:01:29;9.37;;;3.93;;
69034;SDS011;56091;55.756;37.412;2022-09-13T17:06:30;8.20;;;3.58;;
69034;SDS011;56091;55.756;37.412;2022-09-13T17:11:32;7.77;;;3.80;;
69034;SDS011;56091;55.756;37.412;2022-09-13T17:16:38;10.20;;;3.43;;
69034;SDS011;56091;55.756;37.412;2022-09-13T17:21:40;14.48;;;4.13;;
69034;SDS011;56091;55.756;37.412;2022-09-13T17:26:42;9.27;;;3.87;;
69034;SDS011;56091;55.756;37.412;2022-09-13T17:31:46;10.07;;;3.80;;
69034;SDS011;56091;55.756;37.412;2022-09-13T17:36:48;8.97;;;3.90;;
69034;SDS011;56091;55.756;37.412;2022-09-13T17:41:49;8.70;;;3.78;;
69034;SDS011;56091;55.756;37.412;2022-09-13T17:46:50;11.77;;;4.10;;
69034;SDS011;56091;55.756;37.412;2022-09-13T17:51:51;8.02;;;3.30;;
69034;SDS011;56091;55.756;37.412;2022-09-13T17:56:53;8.03;;;3.80;;
69034;SDS011;56091;55.756;37.412;2022-09-13T18:01:54;9.13;;;4.00;;
69034;SDS011;56091;55.756;37.412;2022-09-13T18:06:57;9.60;;;3.90;;
69034;SDS011;56091;55.756;37.412;2022-09-13T18:11:58;8.25;;;4.28;;
69034;SDS011;56091;55.756;37.412;2022-09-13T18:16:59;8.07;;;3.90;;
69034;SDS011;56091;55.756;37.412;2022-09-13T18:22:00;8.15;;;4.25;;
69034;SDS011;56091;55.756;37.412;2022-09-13T18:27:02;7.93;;;3.97;;
69034;SDS011;56091;55.756;37.412;2022-09-13T18:32:02;12.10;;;4.50;;
69034;SDS011;56091;55.756;37.412;2022-09-13T18:37:05;8.40;;;4.30;;
69034;SDS011;56091;55.756;37.412;2022-09-13T18:42:06;8.43;;;4.40;;
69034;SDS011;56091;55.756;37.412;2022-09-13T18:47:12;9.87;;;4.67;;
69034;SDS011;56091;55.756;37.412;2022-09-13T18:52:14;8.45;;;4.75;;
69034;SDS011;56091;55.756;37.412;2022-09-13T18:57:15;10.90;;;5.03;;
69034;SDS011;56091;55.756;37.412;2022-09-13T19:02:16;9.48;;;5.00;;
69034;SDS011;56091;55.756;37.412;2022-09-13T19:07:17;9.70;;;5.20;;
69034;SDS011;56091;55.756;37.412;2022-09-13T19:12:18;12.73;;;4.55;;
69034;SDS011;56091;55.756;37.412;2022-09-13T19:17:18;10.23;;;4.90;;
69034;SDS011;56091;55.756;37.412;2022-09-13T19:22:20;9.25;;;4.78;;
69034;SDS011;56091;55.756;37.412;2022-09-13T19:27:21;9.97;;;4.70;;
69034;SDS011;56091;55.756;37.412;2022-09-13T19:32:25;9.00;;;4.97;;
69034;SDS011;56091;55.756;37.412;2022-09-13T19:37:26;8.13;;;4.78;;
69034;SDS011;56091;55.756;37.412;2022-09-13T19:42:26;9.30;;;5.00;;
69034;SDS011;56091;55.756;37.412;2022-09-13T19:47:27;9.30;;;4.80;;
69034;SDS011;56091;55.756;37.412;2022-09-13T19:52:28;8.00;;;4.70;;
69034;SDS011;56091;55.756;37.412;2022-09-13T19:57:29;7.73;;;4.30;;
69034;SDS011;56091;55.756;37.412;2022-09-13T20:02:30;7.78;;;4.60;;
69034;SDS011;56091;55.756;37.412;2022-09-13T20:07:30;10.63;;;5.20;;
69034;SDS011;56091;55.756;37.412;2022-09-13T20:12:33;11.88;;;5.07;;
69034;SDS011;56091;55.756;37.412;2022-09-13T20:17:37;10.07;;;4.73;;
69034;SDS011;56091;55.756;37.412;2022-09-13T20:22:41;9.23;;;5.47;;
69034;SDS011;56091;55.756;37.412;2022-09-13T20:27:45;8.10;;;5.00;;
69034;SDS011;56091;55.756;37.412;2022-09-13T20:32:45;8.65;;;4.97;;
69034;SDS011;56091;55.756;37.412;2022-09-13T20:37:47;8.00;;;4.73;;
69034;SDS011;56091;55.756;37.412;2022-09-13T20:42:49;8.73;;;4.82;;
69034;SDS011;56091;55.756;37.412;2022-09-13T20:47:50;10.13;;;4.80;;
69034;SDS011;56091;55.756;37.412;2022-09-13T20:52:51;9.63;;;4.80;;
69034;SDS011;56091;55.756;37.412;2022-09-13T20:57:52;8.17;;;5.10;;
69034;SDS011;56091;55.756;37.412;2022-09-13T21:02:54;8.75;;;5.00;;
69034;SDS011;56091;55.756;37.412;2022-09-13T21:07:54;7.93;;;4.63;;
69034;SDS011;56091;55.756;37.412;2022-09-13T21:13:14;12.02;;;6.03;;
69034;SDS011;56091;55.756;37.412;2022-09-13T21:18:15;9.30;;;6.00;;
69034;SDS011;56091;55.756;37.412;2022-09-13T21:23:17;10.87;;;6.00;;
69034;SDS011;56091;55.756;37.412;2022-09-13T21:28:18;11.35;;;6.05;;
69034;SDS011;56091;55.756;37.412;2022-09-13T21:33:19;13.13;;;6.20;;
69034;SDS011;56091;55.756;37.412;2022-09-13T21:38:26;10.00;;;6.38;;
69034;SDS011;56091;55.756;37.412;2022-09-13T21:43:29;9.83;;;6.20;;
69034;SDS011;56091;55.756;37.412;2022-09-13T21:48:31;10.93;;;6.45;;
69034;SDS011;56091;55.756;37.412;2022-09-13T21:53:34;11.70;;;6.10;;
69034;SDS011;56091;55.756;37.412;2022-09-13T21:58:37;10.43;;;6.15;;
69034;SDS011;56091;55.756;37.412;2022-09-13T22:03:39;8.77;;;6.00;;
69034;SDS011;56091;55.756;37.412;2022-09-13T22:08:51;8.98;;;5.38;;
69034;SDS011;56091;55.756;37.412;2022-09-13T22:13:53;9.57;;;5.43;;
69034;SDS011;56091;55.756;37.412;2022-09-13T22:18:56;9.85;;;5.95;;
69034;SDS011;56091;55.756;37.412;2022-09-13T22:24:02;9.77;;;5.63;;
69034;SDS011;56091;55.756;37.412;2022-09-13T22:29:05;11.57;;;5.80;;
69034;SDS011;56091;55.756;37.412;2022-09-13T22:34:09;9.97;;;5.83;;
69034;SDS011;56091;55.756;37.412;2022-09-13T22:39:12;9.48;;;5.95;;
69034;SDS011;56091;55.756;37.412;2022-09-13T22:44:14;10.23;;;6.60;;
69034;SDS011;56091;55.756;37.412;2022-09-13T22:49:17;11.50;;;7.10;;
69034;SDS011;56091;55.756;37.412;2022-09-13T22:54:19;11.70;;;7.70;;
69034;SDS011;56091;55.756;37.412;2022-09-13T22:59:20;11.43;;;7.50;;
69034;SDS011;56091;55.756;37.412;2022-09-13T23:04:20;10.43;;;7.00;;
69034;SDS011;56091;55.756;37.412;2022-09-13T23:09:21;11.40;;;7.50;;
69034;SDS011;56091;55.756;37.412;2022-09-13T23:14:25;10.93;;;7.07;;
69034;SDS011;56091;55.756;37.412;2022-09-13T23:19:28;11.55;;;6.90;;
69034;SDS011;56091;55.756;37.412;2022-09-13T23:24:31;9.67;;;6.53;;
69034;SDS011;56091;55.756;37.412;2022-09-13T23:29:32;10.90;;;6.47;;
69034;SDS011;56091;55.756;37.412;2022-09-13T23:34:33;9.20;;;6.27;;
69034;SDS011;56091;55.756;37.412;2022-09-13T23:39:36;10.35;;;6.38;;
69034;SDS011;56091;55.756;37.412;2022-09-13T23:44:39;9.40;;;5.83;;
69034;SDS011;56091;55.756;37.412;2022-09-13T23:49:43;9.83;;;6.73;;
69034;SDS011;56091;55.756;37.412;2022-09-13T23:54:44;10.43;;;6.40;;
69034;SDS011;56091;55.756;37.412;2022-09-13T23:59:48;12.15;;;6.60;;
